Time;durP1;ratioP1;P1;durP2;ratioP2;P2;SDS_P1;SDS_P2;PMS_P1;PMS_P2;Temp;Humidity;BMP_temperature;BMP_pressure;BME280_temperature;BME280_humidity;BME280_pressure;Samples;Min_cycle;Max_cycle;Signal;HPM_P1;HPM_P2
2023/08/25 00:02:03;;;;;;;13.25;8.23;;;;;;;;;;5067250;28;20009;-68
2023/08/25 00:04:28;;;;;;;16.13;8.55;;;;;;;;;;5056426;28;20057;-68
2023/08/25 00:06:53;;;;;;;14.98;8.80;;;;;;;;;;5062000;28;20048;-68
2023/08/25 00:09:19;;;;;;;15.95;8.63;;;;;;;;;;5059412;28;20028;-69
2023/08/25 00:11:44;;;;;;;14.80;8.40;;;;;;;;;;5059144;28;20020;-70
2023/08/25 00:14:09;;;;;;;13.48;8.77;;;;;;;;;;5058511;28;20078;-69
2023/08/25 00:16:34;;;;;;;15.45;8.77;;;;;;;;;;5069017;28;20017;-69
2023/08/25 00:19:00;;;;;;;12.43;8.90;;;;;;;;;;5060343;28;20032;-69
2023/08/25 00:21:25;;;;;;;14.73;9.88;;;;;;;;;;5066590;28;20037;-69
2023/08/25 00:23:50;;;;;;;15.73;9.60;;;;;;;;;;5062363;28;20018;-70
2023/08/25 00:26:15;;;;;;;24.70;10.77;;;;;;;;;;5058915;28;20032;-69
2023/08/25 00:28:40;;;;;;;17.35;10.40;;;;;;;;;;5068326;28;20036;-68
2023/08/25 00:31:06;;;;;;;17.70;10.30;;;;;;;;;;5059577;28;20048;-68
2023/08/25 00:33:31;;;;;;;15.45;10.70;;;;;;;;;;5059253;28;20057;-69
2023/08/25 00:35:57;;;;;;;17.05;10.38;;;;;;;;;;5048072;28;20396;-68
2023/08/25 00:38:24;;;;;;;18.80;10.35;;;;;;;;;;5044136;28;20016;-68
2023/08/25 00:40:49;;;;;;;16.08;10.60;;;;;;;;;;5043965;28;20473;-67
2023/08/25 00:43:14;;;;;;;18.50;9.98;;;;;;;;;;5035532;28;20044;-67
2023/08/25 00:45:41;;;;;;;18.23;10.07;;;;;;;;;;5035852;28;20025;-67
2023/08/25 00:48:07;;;;;;;15.05;9.20;;;;;;;;;;5039472;28;20445;-68
2023/08/25 00:50:33;;;;;;;15.82;9.57;;;;;;;;;;5051145;28;20473;-66
2023/08/25 00:52:59;;;;;;;14.30;8.95;;;;;;;;;;5033016;28;20091;-66
2023/08/25 00:55:25;;;;;;;14.40;8.60;;;;;;;;;;5040701;28;20492;-65
2023/08/25 00:57:50;;;;;;;12.65;8.40;;;;;;;;;;5035045;28;20045;-65
2023/08/25 01:03:19;;;;;;;17.88;9.63;;;;;;;;;;5075136;22;20047;-70
2023/08/25 01:05:48;;;;;;;18.73;10.32;;;;;;;;;;5072283;28;20025;-70
2023/08/25 01:08:13;;;;;;;16.00;10.02;;;;;;;;;;5072461;28;20020;-70
2023/08/25 01:10:45;;;;;;;17.88;11.20;;;;;;;;;;5072559;28;20017;-69
2023/08/25 01:13:16;;;;;;;17.02;11.50;;;;;;;;;;5071859;28;20028;-69
2023/08/25 01:15:42;;;;;;;19.65;12.68;;;;;;;;;;5069768;28;20023;-70
2023/08/25 01:18:11;;;;;;;19.20;12.75;;;;;;;;;;5068936;28;20373;-70
2023/08/25 01:20:37;;;;;;;25.02;13.85;;;;;;;;;;5071723;28;20052;-73
2023/08/25 01:23:05;;;;;;;22.08;12.85;;;;;;;;;;5070332;28;20409;-73
2023/08/25 01:25:31;;;;;;;24.60;14.50;;;;;;;;;;5072484;28;20370;-70
2023/08/25 01:27:57;;;;;;;21.63;14.38;;;;;;;;;;5071981;28;20111;-68
2023/08/25 01:30:23;;;;;;;23.02;14.10;;;;;;;;;;5070659;28;20414;-69
2023/08/25 01:32:49;;;;;;;22.90;15.23;;;;;;;;;;5069296;28;20019;-68
2023/08/25 01:35:15;;;;;;;28.08;16.02;;;;;;;;;;5071145;28;20383;-68
2023/08/25 01:37:48;;;;;;;24.40;15.50;;;;;;;;;;5071040;28;20024;-68
2023/08/25 01:40:27;;;;;;;22.83;15.68;;;;;;;;;;5069626;28;20021;-68
2023/08/25 01:42:54;;;;;;;25.58;16.92;;;;;;;;;;5069910;28;20441;-68
2023/08/25 01:45:21;;;;;;;26.67;16.55;;;;;;;;;;5071380;28;20024;-68
2023/08/25 01:47:46;;;;;;;24.42;16.73;;;;;;;;;;5071376;28;20043;-68
2023/08/25 01:50:13;;;;;;;26.50;16.65;;;;;;;;;;5071776;28;20473;-67
2023/08/25 01:52:38;;;;;;;26.73;16.98;;;;;;;;;;5071934;28;20055;-68
2023/08/25 01:55:04;;;;;;;27.98;18.55;;;;;;;;;;5071673;28;20409;-68
2023/08/25 01:57:29;;;;;;;26.40;18.05;;;;;;;;;;5072435;28;20460;-68
2023/08/25 01:59:54;;;;;;;26.33;17.65;;;;;;;;;;5071401;28;20024;-68
2023/08/25 02:02:20;;;;;;;30.63;18.70;;;;;;;;;;5064206;28;20044;-68
2023/08/25 02:04:45;;;;;;;36.38;20.25;;;;;;;;;;5049548;28;20065;-68
2023/08/25 02:07:10;;;;;;;37.38;21.90;;;;;;;;;;5056755;28;20020;-68
2023/08/25 02:09:35;;;;;;;36.97;22.38;;;;;;;;;;5051410;28;20405;-66
2023/08/25 02:12:01;;;;;;;34.95;22.10;;;;;;;;;;5070899;28;20015;-66
2023/08/25 02:14:26;;;;;;;34.97;20.67;;;;;;;;;;5051131;28;20108;-66
2023/08/25 02:16:51;;;;;;;35.10;22.65;;;;;;;;;;5050122;28;20111;-67
2023/08/25 02:19:17;;;;;;;38.50;23.67;;;;;;;;;;5050060;28;20029;-66
2023/08/25 02:21:42;;;;;;;38.97;24.65;;;;;;;;;;5051616;28;20063;-66
2023/08/25 02:24:09;;;;;;;44.67;25.52;;;;;;;;;;5051636;28;20086;-66
2023/08/25 02:26:34;;;;;;;41.67;25.08;;;;;;;;;;5048721;28;20495;-67
2023/08/25 02:28:59;;;;;;;44.83;25.13;;;;;;;;;;5052114;28;20012;-67
2023/08/25 02:31:25;;;;;;;41.20;24.30;;;;;;;;;;5051629;28;20460;-66
2023/08/25 02:33:50;;;;;;;38.67;23.23;;;;;;;;;;5066537;28;20016;-66
2023/08/25 02:36:15;;;;;;;39.72;23.95;;;;;;;;;;5049330;28;20051;-67
2023/08/25 02:38:40;;;;;;;38.60;23.23;;;;;;;;;;5049590;28;20029;-66
2023/08/25 02:41:05;;;;;;;37.78;24.50;;;;;;;;;;5053063;28;20020;-66
2023/08/25 02:43:31;;;;;;;39.17;23.90;;;;;;;;;;5054547;28;20024;-67
2023/08/25 02:45:58;;;;;;;39.35;23.92;;;;;;;;;;5051564;28;20040;-66
2023/08/25 02:48:23;;;;;;;38.55;23.33;;;;;;;;;;5051517;28;20067;-68
2023/08/25 02:50:49;;;;;;;37.28;23.58;;;;;;;;;;5051350;28;20072;-68
2023/08/25 02:53:14;;;;;;;37.17;23.55;;;;;;;;;;5051876;28;20024;-67
2023/08/25 02:55:39;;;;;;;40.63;24.05;;;;;;;;;;5049346;28;20021;-66
2023/08/25 02:58:04;;;;;;;49.47;25.52;;;;;;;;;;5049872;28;20024;-66
2023/08/25 03:00:30;;;;;;;42.08;24.50;;;;;;;;;;5049698;28;20024;-66
2023/08/25 03:02:55;;;;;;;42.70;24.58;;;;;;;;;;5047725;28;20652;-66
2023/08/25 03:05:24;;;;;;;41.58;24.90;;;;;;;;;;5043844;28;20029;-68
2023/08/25 03:07:52;;;;;;;41.75;25.10;;;;;;;;;;5050967;28;20480;-66
2023/08/25 03:10:17;;;;;;;42.40;25.38;;;;;;;;;;5050273;28;20025;-67
2023/08/25 03:12:42;;;;;;;45.22;25.60;;;;;;;;;;5048938;28;20021;-67
2023/08/25 03:15:08;;;;;;;43.95;26.25;;;;;;;;;;5052299;28;20021;-67
2023/08/25 03:17:33;;;;;;;44.88;25.77;;;;;;;;;;5047889;28;20079;-67
2023/08/25 03:19:58;;;;;;;48.78;27.38;;;;;;;;;;5052390;28;20037;-67
2023/08/25 03:22:24;;;;;;;48.83;27.15;;;;;;;;;;5047717;28;20103;-68
2023/08/25 03:24:49;;;;;;;46.50;26.77;;;;;;;;;;5059101;28;20056;-68
2023/08/25 03:27:14;;;;;;;51.63;27.63;;;;;;;;;;5058976;28;20025;-67
2023/08/25 03:29:43;;;;;;;53.13;28.08;;;;;;;;;;5062056;28;20037;-67
2023/08/25 03:32:08;;;;;;;53.00;28.13;;;;;;;;;;5050499;28;20468;-68
2023/08/25 03:34:33;;;;;;;52.25;28.98;;;;;;;;;;5051920;28;20067;-67
2023/08/25 03:36:58;;;;;;;51.42;28.15;;;;;;;;;;5047555;28;20086;-67
2023/08/25 03:39:24;;;;;;;50.30;28.67;;;;;;;;;;5050476;28;20056;-67
2023/08/25 03:41:49;;;;;;;53.92;29.85;;;;;;;;;;5055062;28;20021;-67
2023/08/25 03:44:15;;;;;;;57.03;31.05;;;;;;;;;;5054524;28;20021;-68
2023/08/25 03:46:40;;;;;;;57.85;31.08;;;;;;;;;;5054039;28;20029;-67
2023/08/25 03:49:06;;;;;;;65.95;32.28;;;;;;;;;;5055623;28;20086;-67
2023/08/25 03:51:31;;;;;;;63.10;34.15;;;;;;;;;;5054954;28;20089;-69
2023/08/25 03:53:57;;;;;;;65.85;32.63;;;;;;;;;;5054624;28;20397;-67
2023/08/25 03:56:22;;;;;;;66.72;34.00;;;;;;;;;;5051035;28;20295;-67
2023/08/25 03:58:47;;;;;;;72.18;34.97;;;;;;;;;;5054428;28;20033;-67
2023/08/25 04:01:13;;;;;;;71.00;34.88;;;;;;;;;;5054005;28;20031;-69
2023/08/25 04:03:39;;;;;;;64.30;34.45;;;;;;;;;;5054939;28;20136;-66
2023/08/25 04:06:04;;;;;;;66.30;34.20;;;;;;;;;;5054243;28;20033;-66
2023/08/25 04:08:29;;;;;;;59.00;31.88;;;;;;;;;;5054217;28;20025;-67
2023/08/25 04:10:55;;;;;;;66.50;33.08;;;;;;;;;;5054640;28;20416;-68
2023/08/25 04:13:20;;;;;;;68.18;34.03;;;;;;;;;;5059868;28;20017;-69
2023/08/25 04:15:53;;;;;;;75.30;35.70;;;;;;;;;;5056186;28;20033;-68
2023/08/25 04:18:18;;;;;;;83.63;37.25;;;;;;;;;;5053428;28;20546;-68
2023/08/25 04:20:43;;;;;;;94.35;39.13;;;;;;;;;;5054585;28;20135;-68
2023/08/25 04:23:08;;;;;;;110.82;43.50;;;;;;;;;;5059620;28;20079;-69
2023/08/25 04:25:34;;;;;;;113.75;44.88;;;;;;;;;;5053426;28;20017;-69
2023/08/25 04:27:59;;;;;;;111.82;42.95;;;;;;;;;;5056816;28;20506;-69
2023/08/25 04:30:24;;;;;;;111.22;44.95;;;;;;;;;;5067104;28;20017;-67
2023/08/25 04:32:50;;;;;;;112.97;44.67;;;;;;;;;;5053734;28;20046;-67
2023/08/25 04:35:16;;;;;;;116.32;46.45;;;;;;;;;;5053356;28;20039;-66
2023/08/25 04:37:44;;;;;;;105.38;42.60;;;;;;;;;;5054108;28;20029;-66
2023/08/25 04:40:09;;;;;;;100.55;40.90;;;;;;;;;;5062486;28;20077;-66
2023/08/25 04:42:34;;;;;;;66.43;31.88;;;;;;;;;;5053699;28;20032;-66
2023/08/25 04:45:00;;;;;;;83.63;37.15;;;;;;;;;;5053154;28;20040;-66
2023/08/25 04:47:25;;;;;;;82.60;36.85;;;;;;;;;;5051415;28;20025;-66
2023/08/25 04:49:50;;;;;;;79.35;35.70;;;;;;;;;;5053790;28;20032;-66
2023/08/25 04:52:16;;;;;;;92.63;39.08;;;;;;;;;;5049291;28;20049;-66
2023/08/25 04:54:41;;;;;;;90.32;39.30;;;;;;;;;;5057715;28;20070;-66
2023/08/25 04:57:07;;;;;;;86.55;37.85;;;;;;;;;;5052639;28;20020;-67
2023/08/25 04:59:32;;;;;;;84.95;36.83;;;;;;;;;;5050014;28;20043;-66
2023/08/25 05:01:57;;;;;;;79.22;36.42;;;;;;;;;;5051580;28;20035;-66
2023/08/25 05:04:22;;;;;;;77.75;37.90;;;;;;;;;;5053672;28;20132;-66
2023/08/25 05:06:48;;;;;;;65.50;33.97;;;;;;;;;;5062768;28;20039;-67
2023/08/25 05:09:13;;;;;;;61.28;31.08;;;;;;;;;;5048969;28;20025;-67
2023/08/25 05:11:39;;;;;;;50.13;28.10;;;;;;;;;;5052266;28;20025;-66
2023/08/25 05:14:05;;;;;;;45.47;25.33;;;;;;;;;;5050092;28;20017;-66
2023/08/25 05:16:30;;;;;;;43.58;25.38;;;;;;;;;;5055177;28;20148;-67
2023/08/25 05:18:55;;;;;;;40.15;24.95;;;;;;;;;;5058899;28;20020;-66
2023/08/25 05:21:20;;;;;;;35.47;22.27;;;;;;;;;;5072665;28;20016;-66
2023/08/25 05:23:46;;;;;;;34.13;21.58;;;;;;;;;;5072139;28;20082;-66
2023/08/25 05:26:13;;;;;;;33.50;19.98;;;;;;;;;;5071600;28;20358;-67
2023/08/25 05:28:38;;;;;;;30.85;19.35;;;;;;;;;;5064728;28;20067;-67
2023/08/25 05:31:03;;;;;;;33.40;18.83;;;;;;;;;;5049498;28;20503;-67
2023/08/25 05:33:28;;;;;;;36.35;19.90;;;;;;;;;;5060099;28;20028;-72
2023/08/25 05:35:54;;;;;;;30.77;19.98;;;;;;;;;;5059134;28;20024;-75
2023/08/25 05:38:19;;;;;;;32.22;18.63;;;;;;;;;;5053556;28;20456;-76
2023/08/25 05:40:44;;;;;;;26.17;18.20;;;;;;;;;;5059935;28;20127;-68
2023/08/25 05:43:10;;;;;;;28.13;18.13;;;;;;;;;;5055687;28;20029;-67
2023/08/25 05:45:35;;;;;;;30.05;18.58;;;;;;;;;;5055962;28;20075;-67
2023/08/25 05:48:01;;;;;;;27.63;18.75;;;;;;;;;;5057702;28;20029;-67
2023/08/25 05:50:26;;;;;;;28.70;18.77;;;;;;;;;;5055108;28;20026;-67
2023/08/25 05:52:53;;;;;;;27.52;18.48;;;;;;;;;;5068660;28;20535;-67
2023/08/25 05:55:19;;;;;;;25.65;18.40;;;;;;;;;;5069145;28;20032;-67
2023/08/25 05:57:44;;;;;;;26.88;18.58;;;;;;;;;;5057799;28;20434;-68
2023/08/25 06:00:09;;;;;;;27.02;18.77;;;;;;;;;;5054888;28;20013;-67
2023/08/25 06:02:34;;;;;;;28.38;18.25;;;;;;;;;;5060495;28;20124;-67
2023/08/25 06:05:00;;;;;;;26.77;18.35;;;;;;;;;;5061308;28;20020;-68
2023/08/25 06:07:25;;;;;;;24.50;17.10;;;;;;;;;;5060324;28;20468;-69
2023/08/25 06:09:51;;;;;;;24.15;16.23;;;;;;;;;;5063152;28;20465;-69
2023/08/25 06:12:16;;;;;;;23.95;16.48;;;;;;;;;;5071530;28;20426;-69
2023/08/25 06:14:41;;;;;;;25.60;16.08;;;;;;;;;;5065075;28;20096;-70
2023/08/25 06:17:06;;;;;;;22.20;15.68;;;;;;;;;;5060160;28;20051;-68
2023/08/25 06:19:33;;;;;;;21.40;15.93;;;;;;;;;;5052387;28;20009;-69
2023/08/25 06:21:58;;;;;;;22.30;14.85;;;;;;;;;;5052316;28;20013;-67
2023/08/25 06:24:25;;;;;;;22.90;16.55;;;;;;;;;;5052492;28;20369;-69
2023/08/25 06:26:51;;;;;;;23.00;15.70;;;;;;;;;;5048720;28;20028;-71
2023/08/25 06:29:18;;;;;;;24.05;16.35;;;;;;;;;;5052770;28;20572;-71
2023/08/25 06:31:44;;;;;;;21.92;15.13;;;;;;;;;;5052358;28;20013;-70
2023/08/25 06:34:09;;;;;;;21.83;16.10;;;;;;;;;;5052482;28;20009;-71
2023/08/25 06:36:34;;;;;;;27.40;16.45;;;;;;;;;;5051889;28;20013;-68
2023/08/25 06:39:00;;;;;;;22.50;15.80;;;;;;;;;;5052322;28;20079;-69
2023/08/25 06:41:25;;;;;;;23.35;16.15;;;;;;;;;;5051862;28;20392;-68
2023/08/25 06:43:51;;;;;;;22.67;15.48;;;;;;;;;;5071271;28;20024;-70
2023/08/25 06:46:16;;;;;;;19.90;14.15;;;;;;;;;;5070918;28;20487;-70
2023/08/25 06:48:41;;;;;;;20.92;14.70;;;;;;;;;;5058512;28;20044;-69
2023/08/25 06:51:13;;;;;;;19.98;14.95;;;;;;;;;;5071427;28;20016;-74
2023/08/25 06:53:38;;;;;;;22.38;15.23;;;;;;;;;;5056807;28;20013;-69
2023/08/25 06:56:03;;;;;;;20.85;14.50;;;;;;;;;;5052371;28;20040;-67
2023/08/25 06:58:28;;;;;;;18.02;13.93;;;;;;;;;;5052258;28;20415;-68
2023/08/25 07:00:54;;;;;;;19.95;14.20;;;;;;;;;;5071069;28;20468;-69
2023/08/25 07:03:19;;;;;;;22.55;14.75;;;;;;;;;;5070234;28;20378;-68
2023/08/25 07:05:44;;;;;;;21.33;13.90;;;;;;;;;;5063499;28;20077;-68
2023/08/25 07:08:10;;;;;;;23.50;13.75;;;;;;;;;;5070919;28;20353;-67
2023/08/25 07:10:36;;;;;;;17.83;13.57;;;;;;;;;;5070746;28;20032;-71
2023/08/25 07:13:01;;;;;;;21.15;14.57;;;;;;;;;;5064537;28;20019;-73
2023/08/25 07:15:26;;;;;;;18.27;13.77;;;;;;;;;;5069211;28;20028;-69
2023/08/25 07:17:51;;;;;;;18.65;13.35;;;;;;;;;;5055889;28;20020;-69
2023/08/25 07:20:17;;;;;;;18.83;14.13;;;;;;;;;;5056280;28;20033;-70
2023/08/25 07:22:42;;;;;;;20.08;15.07;;;;;;;;;;5055958;28;20017;-68
2023/08/25 07:25:07;;;;;;;20.10;14.40;;;;;;;;;;5056161;28;20017;-68
2023/08/25 07:27:33;;;;;;;19.90;14.13;;;;;;;;;;5064224;28;20099;-68
2023/08/25 07:29:58;;;;;;;20.50;14.70;;;;;;;;;;5074567;28;20016;-68
2023/08/25 07:32:24;;;;;;;19.45;15.07;;;;;;;;;;5064750;28;20024;-69
2023/08/25 07:34:49;;;;;;;21.38;15.60;;;;;;;;;;5055014;28;20020;-69
2023/08/25 07:37:14;;;;;;;23.10;15.95;;;;;;;;;;5055847;28;20473;-68
2023/08/25 07:39:39;;;;;;;21.77;13.85;;;;;;;;;;5055685;28;20009;-69
2023/08/25 07:42:05;;;;;;;20.00;14.55;;;;;;;;;;5055038;28;20029;-69
2023/08/25 07:44:30;;;;;;;20.58;14.40;;;;;;;;;;5055341;28;20048;-67
2023/08/25 07:46:55;;;;;;;20.38;14.75;;;;;;;;;;5055350;28;20025;-67
2023/08/25 07:49:21;;;;;;;20.38;14.68;;;;;;;;;;5055289;28;20020;-68
2023/08/25 07:51:46;;;;;;;21.83;15.93;;;;;;;;;;5055361;28;20020;-67
2023/08/25 07:54:11;;;;;;;24.02;16.35;;;;;;;;;;5055358;28;20055;-69
2023/08/25 07:56:36;;;;;;;27.10;17.60;;;;;;;;;;5055577;28;20027;-68
2023/08/25 07:59:03;;;;;;;22.52;16.40;;;;;;;;;;5055057;28;20021;-74
2023/08/25 08:01:28;;;;;;;24.55;16.98;;;;;;;;;;5055267;28;20021;-76
2023/08/25 08:03:53;;;;;;;26.05;18.95;;;;;;;;;;5055272;28;20045;-72
2023/08/25 08:06:18;;;;;;;27.40;18.52;;;;;;;;;;5055209;28;20024;-75
2023/08/25 08:08:43;;;;;;;28.63;18.95;;;;;;;;;;5055394;28;20017;-67
2023/08/25 08:11:09;;;;;;;26.80;19.38;;;;;;;;;;5055181;28;20016;-70
2023/08/25 08:13:34;;;;;;;29.38;19.70;;;;;;;;;;5055204;28;20096;-66
2023/08/25 08:15:59;;;;;;;26.60;19.40;;;;;;;;;;5054998;28;20013;-67
2023/08/25 08:18:25;;;;;;;27.35;20.55;;;;;;;;;;5054709;28;20425;-66
2023/08/25 08:20:50;;;;;;;32.20;20.52;;;;;;;;;;5054990;28;20063;-70
2023/08/25 08:23:15;;;;;;;31.23;21.40;;;;;;;;;;5055023;28;20013;-67
2023/08/25 08:25:41;;;;;;;31.00;20.52;;;;;;;;;;5053313;28;20088;-70
2023/08/25 08:28:08;;;;;;;29.30;21.13;;;;;;;;;;5053828;28;20228;-68
2023/08/25 08:30:33;;;;;;;28.10;20.48;;;;;;;;;;5053180;28;20023;-67
2023/08/25 08:32:58;;;;;;;35.90;21.48;;;;;;;;;;5054888;28;20017;-67
2023/08/25 08:35:24;;;;;;;30.63;20.50;;;;;;;;;;5053827;28;20013;-66
2023/08/25 08:37:49;;;;;;;30.00;19.52;;;;;;;;;;5054452;28;20037;-68
2023/08/25 08:40:15;;;;;;;27.88;19.13;;;;;;;;;;5054426;28;20028;-68
2023/08/25 08:42:40;;;;;;;28.23;18.42;;;;;;;;;;5069456;28;20077;-66
2023/08/25 08:45:09;;;;;;;26.15;18.90;;;;;;;;;;5073312;28;20013;-66
2023/08/25 08:47:34;;;;;;;28.20;19.02;;;;;;;;;;5065478;28;20013;-67
2023/08/25 08:50:00;;;;;;;29.83;19.48;;;;;;;;;;5052649;28;20017;-67
2023/08/25 08:52:27;;;;;;;26.85;18.08;;;;;;;;;;5054131;28;20550;-66
2023/08/25 08:54:52;;;;;;;30.27;19.55;;;;;;;;;;5054326;28;20491;-66
2023/08/25 08:57:18;;;;;;;27.60;19.08;;;;;;;;;;5054131;28;20021;-66
2023/08/25 08:59:43;;;;;;;26.23;18.73;;;;;;;;;;5054058;28;20025;-66
2023/08/25 09:02:10;;;;;;;30.20;19.27;;;;;;;;;;5053910;28;20545;-66
2023/08/25 09:04:37;;;;;;;27.60;19.52;;;;;;;;;;5054211;28;20376;-66
2023/08/25 09:07:03;;;;;;;29.00;19.48;;;;;;;;;;5053967;28;20013;-66
2023/08/25 09:09:28;;;;;;;26.35;18.60;;;;;;;;;;5054126;28;20096;-70
2023/08/25 09:11:54;;;;;;;26.85;17.83;;;;;;;;;;5053599;28;20512;-69
2023/08/25 09:14:27;;;;;;;26.15;18.23;;;;;;;;;;5054503;28;20526;-70
2023/08/25 09:16:56;;;;;;;23.98;17.55;;;;;;;;;;5053891;28;20549;-71
2023/08/25 09:19:22;;;;;;;29.48;18.00;;;;;;;;;;5053596;28;20517;-70
2023/08/25 09:21:47;;;;;;;28.33;18.40;;;;;;;;;;5053544;28;20173;-69
2023/08/25 09:24:17;;;;;;;28.52;18.65;;;;;;;;;;5053590;28;20044;-68
2023/08/25 09:26:42;;;;;;;27.08;19.08;;;;;;;;;;5051613;28;20021;-69
2023/08/25 09:29:09;;;;;;;28.48;19.27;;;;;;;;;;5055261;28;20067;-68
2023/08/25 09:31:34;;;;;;;27.27;18.42;;;;;;;;;;5071989;28;20020;-69
2023/08/25 09:34:01;;;;;;;29.90;18.98;;;;;;;;;;5068149;28;20348;-70
2023/08/25 09:36:26;;;;;;;27.60;18.52;;;;;;;;;;5072073;28;20491;-68
2023/08/25 09:38:52;;;;;;;29.00;18.10;;;;;;;;;;5071727;28;20017;-68
2023/08/25 09:41:24;;;;;;;27.50;17.65;;;;;;;;;;5071862;28;20107;-68
2023/08/25 09:43:50;;;;;;;29.10;18.30;;;;;;;;;;5071996;28;20074;-68
2023/08/25 09:46:15;;;;;;;30.42;19.33;;;;;;;;;;5069723;28;20029;-69
2023/08/25 09:48:40;;;;;;;30.25;18.52;;;;;;;;;;5066625;28;20024;-68
2023/08/25 09:51:06;;;;;;;31.70;19.75;;;;;;;;;;5071988;28;20012;-69
2023/08/25 09:53:33;;;;;;;27.95;18.60;;;;;;;;;;5058810;28;20078;-69
2023/08/25 09:56:02;;;;;;;28.90;18.75;;;;;;;;;;5053228;28;20017;-69
2023/08/25 09:58:28;;;;;;;33.67;19.15;;;;;;;;;;5053003;28;20013;-69
2023/08/25 10:00:53;;;;;;;28.25;18.15;;;;;;;;;;5052988;28;20036;-69
2023/08/25 10:03:18;;;;;;;24.55;16.83;;;;;;;;;;5052583;28;20041;-69
2023/08/25 10:05:46;;;;;;;27.27;17.95;;;;;;;;;;5052891;28;20013;-69
2023/08/25 10:08:11;;;;;;;23.17;16.60;;;;;;;;;;5052904;28;20028;-69
2023/08/25 10:10:37;;;;;;;25.17;17.08;;;;;;;;;;5052955;28;20372;-69
2023/08/25 10:13:06;;;;;;;24.63;16.45;;;;;;;;;;5052645;28;20021;-69
2023/08/25 10:15:32;;;;;;;24.90;15.70;;;;;;;;;;5051412;28;20460;-72
2023/08/25 10:18:01;;;;;;;20.13;14.60;;;;;;;;;;5051316;28;20027;-69
2023/08/25 10:20:27;;;;;;;25.55;13.90;;;;;;;;;;5052480;28;20028;-67
2023/08/25 10:22:54;;;;;;;19.13;12.55;;;;;;;;;;5052869;28;20057;-67
2023/08/25 10:25:20;;;;;;;20.70;12.00;;;;;;;;;;5052798;28;20024;-67
2023/08/25 10:27:45;;;;;;;19.05;11.65;;;;;;;;;;5052596;28;20021;-67
2023/08/25 10:30:11;;;;;;;19.13;11.45;;;;;;;;;;5052615;28;20364;-66
2023/08/25 10:32:49;;;;;;;17.60;11.02;;;;;;;;;;5052227;28;20416;-66
2023/08/25 10:35:14;;;;;;;19.92;13.18;;;;;;;;;;5045534;28;20017;-67
2023/08/25 10:37:39;;;;;;;27.90;13.77;;;;;;;;;;5051337;28;20377;-67
2023/08/25 10:40:11;;;;;;;24.77;13.32;;;;;;;;;;5047552;28;20079;-68
2023/08/25 10:42:37;;;;;;;23.25;12.48;;;;;;;;;;5052865;28;20044;-67
2023/08/25 10:45:10;;;;;;;21.45;12.18;;;;;;;;;;5055236;28;20022;-67
2023/08/25 10:47:41;;;;;;;20.08;12.55;;;;;;;;;;5066321;28;20099;-67
2023/08/25 10:50:07;;;;;;;19.25;12.82;;;;;;;;;;5057596;28;20101;-70
2023/08/25 10:52:32;;;;;;;19.90;12.80;;;;;;;;;;5050282;28;20112;-69
2023/08/25 10:55:17;;;;;;;20.60;13.60;;;;;;;;;;5049358;28;20989;-67
2023/08/25 10:57:44;;;;;;;29.00;13.38;;;;;;;;;;5052214;28;20321;-66
2023/08/25 11:00:29;;;;;;;32.83;14.15;;;;;;;;;;5046489;28;20058;-67
2023/08/25 11:02:55;;;;;;;19.17;12.90;;;;;;;;;;5048052;28;20451;-67
2023/08/25 11:05:28;;;;;;;16.90;10.68;;;;;;;;;;5066604;28;20437;-67
2023/08/25 11:07:54;;;;;;;18.98;9.90;;;;;;;;;;5063456;28;20049;-65
2023/08/25 11:10:23;;;;;;;16.42;9.85;;;;;;;;;;5055943;28;20033;-65
2023/08/25 11:12:51;;;;;;;15.38;9.25;;;;;;;;;;5052073;28;20024;-66
2023/08/25 11:15:17;;;;;;;16.73;10.68;;;;;;;;;;5051215;28;20477;-65
2023/08/25 11:17:43;;;;;;;15.20;10.15;;;;;;;;;;5064112;28;20067;-65
2023/08/25 11:20:08;;;;;;;14.57;10.13;;;;;;;;;;5050358;28;20417;-68
2023/08/25 11:22:34;;;;;;;15.68;9.93;;;;;;;;;;5053325;28;20367;-68
2023/08/25 11:24:59;;;;;;;19.13;10.75;;;;;;;;;;5058091;28;20349;-68
2023/08/25 11:27:25;;;;;;;19.65;11.25;;;;;;;;;;5058986;28;20590;-68
2023/08/25 11:29:50;;;;;;;17.23;10.98;;;;;;;;;;5050109;28;20504;-66
2023/08/25 11:32:15;;;;;;;18.35;10.32;;;;;;;;;;5051699;28;20009;-65
2023/08/25 11:34:50;;;;;;;16.33;10.35;;;;;;;;;;5065734;28;20043;-65
2023/08/25 11:37:15;;;;;;;16.02;10.10;;;;;;;;;;5054170;28;20036;-65
2023/08/25 11:39:41;;;;;;;16.15;10.50;;;;;;;;;;5051625;28;20025;-65
2023/08/25 11:42:07;;;;;;;16.35;10.65;;;;;;;;;;5057508;28;20024;-66
2023/08/25 11:44:33;;;;;;;15.32;9.13;;;;;;;;;;5047952;28;20021;-68
2023/08/25 11:46:59;;;;;;;12.57;8.02;;;;;;;;;;5050043;28;20032;-69
2023/08/25 11:49:26;;;;;;;13.63;7.22;;;;;;;;;;5048296;28;20107;-68
2023/08/25 11:51:54;;;;;;;13.30;7.65;;;;;;;;;;5052111;28;20016;-68
2023/08/25 11:54:20;;;;;;;19.02;7.90;;;;;;;;;;5049849;28;20024;-68
2023/08/25 11:56:49;;;;;;;13.82;7.82;;;;;;;;;;5050653;28;20021;-67
2023/08/25 11:59:16;;;;;;;11.27;7.30;;;;;;;;;;5049596;28;20109;-66
2023/08/25 12:01:41;;;;;;;11.55;7.78;;;;;;;;;;5047516;28;20032;-66
2023/08/25 12:04:19;;;;;;;12.18;7.65;;;;;;;;;;5054784;28;20049;-66
2023/08/25 12:06:45;;;;;;;12.93;7.88;;;;;;;;;;5051313;28;20548;-66
2023/08/25 12:09:10;;;;;;;11.00;7.68;;;;;;;;;;5055708;28;20142;-65
2023/08/25 12:11:35;;;;;;;12.43;8.05;;;;;;;;;;5054120;28;20021;-66
2023/08/25 12:14:01;;;;;;;13.18;8.50;;;;;;;;;;5053398;28;20140;-65
2023/08/25 12:16:26;;;;;;;14.00;7.80;;;;;;;;;;5055086;28;20021;-67
2023/08/25 12:18:52;;;;;;;15.65;8.35;;;;;;;;;;5055025;28;20088;-66
2023/08/25 12:21:18;;;;;;;13.07;8.32;;;;;;;;;;5050226;28;20353;-68
2023/08/25 12:23:43;;;;;;;17.15;9.20;;;;;;;;;;5053867;28;20021;-68
2023/08/25 12:26:09;;;;;;;13.98;8.90;;;;;;;;;;5053736;28;20536;-67
2023/08/25 12:28:35;;;;;;;14.73;9.27;;;;;;;;;;5048847;28;20431;-66
2023/08/25 12:31:01;;;;;;;14.90;9.93;;;;;;;;;;5050461;28;20021;-67
2023/08/25 12:33:26;;;;;;;16.17;9.95;;;;;;;;;;5053608;28;20021;-68
2023/08/25 12:35:52;;;;;;;16.85;10.27;;;;;;;;;;5054682;28;20020;-67
2023/08/25 12:38:17;;;;;;;16.55;11.32;;;;;;;;;;5054314;28;20025;-67
2023/08/25 12:40:42;;;;;;;18.90;11.52;;;;;;;;;;5059262;28;20047;-67
2023/08/25 12:43:07;;;;;;;19.77;12.00;;;;;;;;;;5048005;28;20423;-67
2023/08/25 12:45:33;;;;;;;17.33;12.60;;;;;;;;;;5054266;28;20017;-67
2023/08/25 12:47:59;;;;;;;14.60;11.43;;;;;;;;;;5054336;28;20016;-68
2023/08/25 12:50:24;;;;;;;18.08;11.60;;;;;;;;;;5054129;28;20020;-67
2023/08/25 12:52:50;;;;;;;16.02;11.82;;;;;;;;;;5052932;28;20052;-67
2023/08/25 12:55:15;;;;;;;17.63;12.63;;;;;;;;;;5054430;28;20021;-67
2023/08/25 12:57:43;;;;;;;17.70;11.75;;;;;;;;;;5054086;28;20147;-68
2023/08/25 13:00:09;;;;;;;16.60;11.60;;;;;;;;;;5051569;28;20024;-67
2023/08/25 13:02:35;;;;;;;17.40;11.55;;;;;;;;;;5050742;28;20420;-67
2023/08/25 13:05:00;;;;;;;14.90;11.32;;;;;;;;;;5051318;28;20047;-67
2023/08/25 13:07:25;;;;;;;16.60;11.50;;;;;;;;;;5054114;28;20071;-67
2023/08/25 13:09:50;;;;;;;14.30;11.15;;;;;;;;;;5054471;28;20119;-68
2023/08/25 13:12:16;;;;;;;15.73;10.63;;;;;;;;;;5051871;28;20416;-68
2023/08/25 13:14:42;;;;;;;14.15;9.88;;;;;;;;;;5048440;28;20377;-67
2023/08/25 13:17:07;;;;;;;13.63;9.32;;;;;;;;;;5045363;28;20102;-68
2023/08/25 13:19:32;;;;;;;13.90;8.68;;;;;;;;;;5049151;28;20473;-68
2023/08/25 13:21:57;;;;;;;11.43;8.05;;;;;;;;;;5049716;28;20536;-68
2023/08/25 13:24:22;;;;;;;12.60;8.38;;;;;;;;;;5050056;28;20351;-69
2023/08/25 13:26:48;;;;;;;10.95;7.38;;;;;;;;;;5051461;28;20056;-68
2023/08/25 13:29:13;;;;;;;8.98;5.78;;;;;;;;;;5057459;28;20063;-67
2023/08/25 13:31:38;;;;;;;8.23;4.93;;;;;;;;;;5051647;28;20075;-68
2023/08/25 13:34:03;;;;;;;9.13;4.82;;;;;;;;;;5045037;28;20017;-67
2023/08/25 13:36:29;;;;;;;8.45;4.90;;;;;;;;;;5050656;28;20032;-67
2023/08/25 13:38:54;;;;;;;10.13;5.25;;;;;;;;;;5055950;28;20021;-68
2023/08/25 13:41:20;;;;;;;8.65;5.03;;;;;;;;;;5059692;28;20103;-68
2023/08/25 13:43:45;;;;;;;9.30;4.82;;;;;;;;;;5061270;28;20044;-68
2023/08/25 13:46:10;;;;;;;8.75;4.78;;;;;;;;;;5048821;28;20021;-68
2023/08/25 13:48:35;;;;;;;7.72;4.78;;;;;;;;;;5057521;28;20063;-68
2023/08/25 13:51:01;;;;;;;7.70;4.43;;;;;;;;;;5054605;28;20016;-71
2023/08/25 13:53:26;;;;;;;6.72;4.63;;;;;;;;;;5052338;28;20040;-69
2023/08/25 13:55:51;;;;;;;8.20;4.90;;;;;;;;;;5058010;28;20021;-71
2023/08/25 13:58:16;;;;;;;7.75;4.80;;;;;;;;;;5058829;28;20051;-71
2023/08/25 14:00:42;;;;;;;6.05;3.72;;;;;;;;;;5056359;28;20024;-71
2023/08/25 14:03:07;;;;;;;6.63;3.30;;;;;;;;;;5055279;28;20049;-70
2023/08/25 14:05:32;;;;;;;8.63;4.40;;;;;;;;;;5053110;28;20024;-70
2023/08/25 14:07:58;;;;;;;7.85;4.57;;;;;;;;;;5053010;28;20033;-72
2023/08/25 14:10:25;;;;;;;6.63;4.18;;;;;;;;;;5053061;28;20017;-71
2023/08/25 14:12:51;;;;;;;6.22;3.03;;;;;;;;;;5066924;28;20020;-74
2023/08/25 14:15:16;;;;;;;7.95;3.30;;;;;;;;;;5071336;28;20053;-71
2023/08/25 14:17:42;;;;;;;6.45;3.10;;;;;;;;;;5056671;28;20013;-71